Time;durP1;ratioP1;P1;durP2;ratioP2;P2;SDS_P1;SDS_P2;PMS_P1;PMS_P2;Temp;Humidity;BMP_temperature;BMP_pressure;BME280_temperature;BME280_humidity;BME280_pressure;Samples;Min_cycle;Max_cycle;Signal;HPM_P1;HPM_P2
2023/03/27 00:02:24;;;;;;;3.78;3.58;;;;;;;;;;5044228;28;20049;-94
2023/03/27 00:04:53;;;;;;;3.55;3.35;;;;;;;;;;5047169;28;20049;-95
2023/03/27 00:07:20;;;;;;;4.80;4.50;;;;;;;;;;5048465;28;20076;-95
2023/03/27 00:09:47;;;;;;;4.32;2.90;;;;;;;;;;5049149;28;20168;-94
2023/03/27 00:12:14;;;;;;;7.13;6.70;;;;;;;;;;5050238;28;20505;-95
2023/03/27 00:14:42;;;;;;;5.35;5.05;;;;;;;;;;5048096;28;20053;-94
2023/03/27 00:17:09;;;;;;;3.55;3.40;;;;;;;;;;5047338;28;20054;-94
2023/03/27 00:19:37;;;;;;;3.40;3.22;;;;;;;;;;5044952;28;20049;-95
2023/03/27 00:22:04;;;;;;;4.43;4.20;;;;;;;;;;5039581;28;20057;-94
2023/03/27 00:24:31;;;;;;;3.88;3.67;;;;;;;;;;5041726;28;20053;-95
2023/03/27 00:26:57;;;;;;;7.00;6.70;;;;;;;;;;5043230;28;20433;-95
2023/03/27 00:29:24;;;;;;;3.50;3.30;;;;;;;;;;5046568;28;20049;-94
2023/03/27 00:31:52;;;;;;;3.45;3.28;;;;;;;;;;5046743;28;20045;-94
2023/03/27 00:34:19;;;;;;;3.92;3.22;;;;;;;;;;5043288;28;20049;-95
2023/03/27 00:36:49;;;;;;;3.42;2.67;;;;;;;;;;5045270;28;20045;-94
2023/03/27 00:39:17;;;;;;;3.50;3.30;;;;;;;;;;5027504;28;20073;-93
2023/03/27 00:41:44;;;;;;;8.68;3.25;;;;;;;;;;5028508;28;20117;-93
2023/03/27 00:44:24;;;;;;;4.25;3.90;;;;;;;;;;5027388;28;20053;-94
2023/03/27 00:46:55;;;;;;;3.33;3.17;;;;;;;;;;5026542;28;20049;-93
2023/03/27 00:49:23;;;;;;;5.28;5.03;;;;;;;;;;5027308;28;20092;-94
2023/03/27 00:51:51;;;;;;;4.70;4.50;;;;;;;;;;5026566;28;20058;-94
2023/03/27 00:54:25;;;;;;;3.35;3.17;;;;;;;;;;5039097;28;20037;-94
2023/03/27 00:56:52;;;;;;;4.60;4.38;;;;;;;;;;5045831;28;20076;-95
2023/03/27 00:59:21;;;;;;;2.42;2.33;;;;;;;;;;5044148;28;20049;-94
2023/03/27 01:01:48;;;;;;;2.92;2.83;;;;;;;;;;5041893;28;20053;-94
2023/03/27 01:04:20;;;;;;;6.07;5.60;;;;;;;;;;5040445;28;20132;-94
2023/03/27 01:06:47;;;;;;;3.50;3.30;;;;;;;;;;5024947;28;20057;-95
2023/03/27 01:09:15;;;;;;;4.07;3.88;;;;;;;;;;5027598;28;20057;-94
2023/03/27 01:11:47;;;;;;;3.78;3.58;;;;;;;;;;5038259;28;20057;-95
2023/03/27 01:14:20;;;;;;;3.88;3.67;;;;;;;;;;5047146;28;20042;-93
2023/03/27 01:16:50;;;;;;;3.70;3.53;;;;;;;;;;5047067;28;20049;-94
2023/03/27 01:19:40;;;;;;;8.43;8.02;;;;;;;;;;5043711;28;20443;-93
2023/03/27 01:22:23;;;;;;;3.67;3.47;;;;;;;;;;5045689;28;20046;-94
2023/03/27 01:25:11;;;;;;;2.25;2.15;;;;;;;;;;5046308;28;20054;-94
2023/03/27 01:28:02;;;;;;;2.28;2.17;;;;;;;;;;5046011;28;20049;-94
2023/03/27 01:30:30;;;;;;;3.65;3.45;;;;;;;;;;5034343;28;20045;-93
2023/03/27 01:33:12;;;;;;;4.07;3.60;;;;;;;;;;5040228;28;20045;-92
2023/03/27 01:35:57;;;;;;;2.83;2.72;;;;;;;;;;5037499;28;20084;-92
2023/03/27 01:38:39;;;;;;;2.17;2.08;;;;;;;;;;5039420;28;20413;-92
2023/03/27 01:41:09;;;;;;;3.88;3.55;;;;;;;;;;5043083;28;20050;-92
2023/03/27 01:43:39;;;;;;;3.58;3.38;;;;;;;;;;5045178;28;20071;-92
2023/03/27 01:46:07;;;;;;;4.35;3.30;;;;;;;;;;5048678;28;20041;-92
2023/03/27 01:48:37;;;;;;;4.72;4.10;;;;;;;;;;5046898;28;20049;-93
2023/03/27 01:51:07;;;;;;;3.83;3.65;;;;;;;;;;5048941;28;20105;-93
2023/03/27 01:53:37;;;;;;;4.25;3.40;;;;;;;;;;5049645;28;20100;-93
2023/03/27 01:56:07;;;;;;;2.90;2.72;;;;;;;;;;5050921;28;20061;-93
2023/03/27 01:58:37;;;;;;;2.72;2.63;;;;;;;;;;5043829;28;20081;-95
2023/03/27 02:01:04;;;;;;;4.57;4.22;;;;;;;;;;5038921;28;20550;-95
2023/03/27 02:03:34;;;;;;;3.60;3.40;;;;;;;;;;5038953;28;20549;-95
2023/03/27 02:06:01;;;;;;;12.02;11.43;;;;;;;;;;5039945;28;20397;-94
2023/03/27 02:08:30;;;;;;;8.23;7.93;;;;;;;;;;5040669;28;20452;-94
2023/03/27 02:10:59;;;;;;;4.95;3.05;;;;;;;;;;5043403;28;20096;-95
2023/03/27 02:13:27;;;;;;;4.05;3.83;;;;;;;;;;5048759;28;20056;-95
2023/03/27 02:15:57;;;;;;;3.80;3.60;;;;;;;;;;5050215;28;20079;-94
2023/03/27 02:18:27;;;;;;;4.22;4.03;;;;;;;;;;5048348;28;20050;-94
2023/03/27 02:20:54;;;;;;;3.85;3.72;;;;;;;;;;5044925;28;20052;-94
2023/03/27 02:23:21;;;;;;;4.20;4.00;;;;;;;;;;5044769;28;20045;-93
2023/03/27 02:25:48;;;;;;;4.10;3.90;;;;;;;;;;5040458;28;20053;-93
2023/03/27 02:28:28;;;;;;;6.15;5.32;;;;;;;;;;5045820;28;20054;-95
2023/03/27 02:31:00;;;;;;;4.45;4.25;;;;;;;;;;5041499;28;20083;-95
2023/03/27 02:33:30;;;;;;;4.80;4.60;;;;;;;;;;5044189;28;20056;-92
2023/03/27 02:35:59;;;;;;;5.95;5.65;;;;;;;;;;5041423;28;20053;-94
2023/03/27 02:38:30;;;;;;;7.28;6.88;;;;;;;;;;5041102;28;20050;-94
2023/03/27 02:41:03;;;;;;;4.25;4.05;;;;;;;;;;5039795;28;20061;-93
2023/03/27 02:43:33;;;;;;;6.05;5.75;;;;;;;;;;5038760;28;20056;-94
2023/03/27 02:46:02;;;;;;;5.20;4.97;;;;;;;;;;5038757;28;20095;-91
2023/03/27 02:48:32;;;;;;;5.68;5.22;;;;;;;;;;5040607;28;20043;-94
2023/03/27 02:51:01;;;;;;;6.60;6.30;;;;;;;;;;5041472;28;20128;-93
2023/03/27 02:53:30;;;;;;;6.22;5.93;;;;;;;;;;5038810;28;20072;-92
2023/03/27 02:55:58;;;;;;;5.82;5.43;;;;;;;;;;5039778;28;20052;-94
2023/03/27 02:58:29;;;;;;;4.80;4.50;;;;;;;;;;5038673;28;20103;-94
2023/03/27 03:00:57;;;;;;;4.53;4.30;;;;;;;;;;5040281;28;20489;-95
2023/03/27 03:03:30;;;;;;;5.65;5.30;;;;;;;;;;5038794;28;20057;-93
2023/03/27 03:05:57;;;;;;;5.80;5.50;;;;;;;;;;5036264;28;20045;-92
2023/03/27 03:08:29;;;;;;;5.63;5.15;;;;;;;;;;5038814;28;20068;-93
2023/03/27 03:10:59;;;;;;;5.65;5.35;;;;;;;;;;5040676;28;20049;-93
2023/03/27 03:13:26;;;;;;;6.15;5.85;;;;;;;;;;5038291;28;20057;-94
2023/03/27 03:15:52;;;;;;;6.38;6.07;;;;;;;;;;5042999;28;20049;-95
2023/03/27 03:18:19;;;;;;;6.70;6.38;;;;;;;;;;5041493;28;20041;-93
2023/03/27 03:20:47;;;;;;;13.88;13.30;;;;;;;;;;5039032;28;20440;-93
2023/03/27 03:23:14;;;;;;;7.30;6.82;;;;;;;;;;5039532;28;20045;-93
2023/03/27 03:25:43;;;;;;;5.38;5.15;;;;;;;;;;5038078;28;20053;-93
2023/03/27 03:28:10;;;;;;;5.32;5.03;;;;;;;;;;5038212;28;20076;-93
2023/03/27 03:30:37;;;;;;;5.95;5.72;;;;;;;;;;5037493;28;20512;-92
2023/03/27 03:33:04;;;;;;;5.03;4.72;;;;;;;;;;5038442;28;20045;-93
2023/03/27 03:35:30;;;;;;;5.03;4.75;;;;;;;;;;5036877;28;20064;-93
2023/03/27 03:37:59;;;;;;;6.63;6.25;;;;;;;;;;5040579;28;20046;-96
2023/03/27 03:40:26;;;;;;;6.30;6.00;;;;;;;;;;5047448;28;20084;-94
2023/03/27 03:42:53;;;;;;;14.23;13.55;;;;;;;;;;5050989;28;20535;-94
2023/03/27 03:45:19;;;;;;;5.20;4.90;;;;;;;;;;5046774;28;20111;-94
2023/03/27 03:47:46;;;;;;;6.57;6.18;;;;;;;;;;5047748;28;20041;-95
2023/03/27 03:50:13;;;;;;;4.68;4.38;;;;;;;;;;5038246;28;20052;-93
2023/03/27 03:52:40;;;;;;;4.15;3.95;;;;;;;;;;5036393;28;20045;-93
2023/03/27 03:55:10;;;;;;;4.70;4.40;;;;;;;;;;5041767;28;20080;-94
2023/03/27 03:57:37;;;;;;;3.13;2.95;;;;;;;;;;5039691;28;20557;-94
2023/03/27 04:00:07;;;;;;;5.05;4.80;;;;;;;;;;5038818;28;20050;-94
2023/03/27 04:02:35;;;;;;;5.70;5.40;;;;;;;;;;5040914;28;20056;-94
2023/03/27 04:05:03;;;;;;;5.82;5.50;;;;;;;;;;5042860;28;20063;-94
2023/03/27 04:07:31;;;;;;;4.82;4.53;;;;;;;;;;5043588;28;20113;-94
2023/03/27 04:09:58;;;;;;;5.80;4.70;;;;;;;;;;5043748;28;20050;-95
2023/03/27 04:12:26;;;;;;;4.38;4.15;;;;;;;;;;5047695;28;20049;-94
2023/03/27 04:14:53;;;;;;;5.50;5.20;;;;;;;;;;5050808;28;20049;-94
2023/03/27 04:17:20;;;;;;;6.63;6.22;;;;;;;;;;5042884;28;20075;-92
2023/03/27 04:19:47;;;;;;;5.53;5.22;;;;;;;;;;5038676;28;20088;-95
2023/03/27 04:22:16;;;;;;;6.25;5.95;;;;;;;;;;5045095;28;20107;-94
2023/03/27 04:24:43;;;;;;;4.43;4.22;;;;;;;;;;5042516;28;20140;-93
2023/03/27 04:27:10;;;;;;;6.97;5.40;;;;;;;;;;5046010;28;20042;-94
2023/03/27 04:29:41;;;;;;;3.67;3.53;;;;;;;;;;5037046;28;20111;-93
2023/03/27 04:32:08;;;;;;;5.63;5.38;;;;;;;;;;5038104;28;20046;-91
2023/03/27 04:34:37;;;;;;;5.07;4.88;;;;;;;;;;5036836;28;20053;-94
2023/03/27 04:37:04;;;;;;;3.63;3.42;;;;;;;;;;5037908;28;20053;-94
2023/03/27 04:39:34;;;;;;;5.18;4.75;;;;;;;;;;5040036;28;20468;-94
2023/03/27 04:42:01;;;;;;;;;;;;;;;;;;5037253;28;20061;-92
2023/03/27 04:44:28;;;;;;;5.35;4.95;;;;;;;;;;5037607;28;20016;-92
2023/03/27 04:47:00;;;;;;;4.70;4.47;;;;;;;;;;5036144;28;20125;-95
2023/03/27 04:49:27;;;;;;;4.45;4.25;;;;;;;;;;5046170;28;20049;-93
2023/03/27 04:51:54;;;;;;;3.80;3.60;;;;;;;;;;5042842;28;20049;-91
2023/03/27 04:54:22;;;;;;;6.25;5.95;;;;;;;;;;5034763;28;20056;-92
2023/03/27 04:56:48;;;;;;;6.22;5.82;;;;;;;;;;5035012;28;20136;-91
2023/03/27 04:59:15;;;;;;;7.10;6.75;;;;;;;;;;5035055;28;20103;-89
2023/03/27 05:01:42;;;;;;;6.50;6.18;;;;;;;;;;5039264;28;20080;-92
2023/03/27 05:04:10;;;;;;;7.38;6.93;;;;;;;;;;5036515;28;20056;-92
2023/03/27 05:06:36;;;;;;;6.47;6.18;;;;;;;;;;5020757;28;20671;-92
2023/03/27 05:09:03;;;;;;;5.15;4.88;;;;;;;;;;5016124;28;20054;-92
2023/03/27 05:11:30;;;;;;;4.55;4.35;;;;;;;;;;5015165;28;20069;-92
2023/03/27 05:13:57;;;;;;;13.85;13.25;;;;;;;;;;5011293;28;20472;-91
2023/03/27 05:16:25;;;;;;;5.80;5.38;;;;;;;;;;5015018;28;20056;-91
2023/03/27 05:18:51;;;;;;;5.97;5.65;;;;;;;;;;5023695;28;20053;-92
2023/03/27 05:21:19;;;;;;;6.18;5.75;;;;;;;;;;5033896;28;20115;-92
2023/03/27 05:23:47;;;;;;;5.25;4.95;;;;;;;;;;5039213;28;20046;-93
2023/03/27 05:26:13;;;;;;;5.55;5.25;;;;;;;;;;5035084;28;20119;-92
2023/03/27 05:28:40;;;;;;;14.32;13.60;;;;;;;;;;5034877;28;20405;-90
2023/03/27 05:31:09;;;;;;;6.93;6.55;;;;;;;;;;5034035;28;20493;-92
2023/03/27 05:33:36;;;;;;;7.80;7.43;;;;;;;;;;5034162;28;20049;-92
2023/03/27 05:36:04;;;;;;;6.38;5.68;;;;;;;;;;5034036;28;20494;-92
2023/03/27 05:38:32;;;;;;;6.00;5.70;;;;;;;;;;5032799;28;20128;-92
2023/03/27 05:41:01;;;;;;;7.25;6.68;;;;;;;;;;5034374;28;20104;-91
2023/03/27 05:43:27;;;;;;;6.43;6.13;;;;;;;;;;5034124;28;20124;-91
2023/03/27 05:45:54;;;;;;;4.00;3.80;;;;;;;;;;5034598;28;20041;-91
2023/03/27 05:48:21;;;;;;;5.82;5.53;;;;;;;;;;5014186;28;20528;-91
2023/03/27 05:50:47;;;;;;;17.52;16.63;;;;;;;;;;5015895;28;20414;-92
2023/03/27 05:53:14;;;;;;;5.32;5.03;;;;;;;;;;5035012;28;20468;-91
2023/03/27 05:55:42;;;;;;;5.80;5.43;;;;;;;;;;5035141;28;20055;-92
2023/03/27 05:58:10;;;;;;;7.35;6.95;;;;;;;;;;5035768;28;20046;-91
2023/03/27 06:00:37;;;;;;;5.20;4.90;;;;;;;;;;5036859;28;20508;-91
2023/03/27 06:03:04;;;;;;;7.43;6.93;;;;;;;;;;5034928;28;20060;-91
2023/03/27 06:05:31;;;;;;;9.07;8.60;;;;;;;;;;5037847;28;20487;-91
2023/03/27 06:07:58;;;;;;;6.82;6.32;;;;;;;;;;5050895;28;20050;-91
2023/03/27 06:10:25;;;;;;;6.72;6.35;;;;;;;;;;5047512;28;20064;-91
2023/03/27 06:13:00;;;;;;;9.60;9.07;;;;;;;;;;5048726;28;20049;-91
2023/03/27 06:15:27;;;;;;;8.93;8.52;;;;;;;;;;5042495;28;20049;-89
2023/03/27 06:17:53;;;;;;;6.68;6.38;;;;;;;;;;5038829;28;20049;-91
2023/03/27 06:20:21;;;;;;;7.13;6.82;;;;;;;;;;5040601;28;20057;-90
2023/03/27 06:22:48;;;;;;;5.35;5.07;;;;;;;;;;5044067;28;20103;-89
2023/03/27 06:25:15;;;;;;;5.80;5.50;;;;;;;;;;5039535;28;20099;-90
2023/03/27 06:27:42;;;;;;;7.55;7.15;;;;;;;;;;5039167;28;20045;-89
2023/03/27 06:30:11;;;;;;;6.32;6.03;;;;;;;;;;5037292;28;20053;-91
2023/03/27 06:32:42;;;;;;;6.72;6.40;;;;;;;;;;5037033;28;20095;-90
2023/03/27 06:35:09;;;;;;;6.15;5.85;;;;;;;;;;5037079;28;20103;-89
2023/03/27 06:37:36;;;;;;;7.78;7.38;;;;;;;;;;5036511;28;20057;-89
2023/03/27 06:40:04;;;;;;;6.15;5.85;;;;;;;;;;5036000;28;20258;-90
2023/03/27 06:42:33;;;;;;;10.00;9.57;;;;;;;;;;5036330;28;20076;-90
2023/03/27 06:44:59;;;;;;;5.78;5.47;;;;;;;;;;5036671;28;20111;-89
2023/03/27 06:47:28;;;;;;;9.43;8.98;;;;;;;;;;5035123;28;20141;-89
2023/03/27 06:49:55;;;;;;;6.10;5.80;;;;;;;;;;5035207;28;20064;-91
2023/03/27 06:52:22;;;;;;;16.75;16.05;;;;;;;;;;5036643;28;20676;-89
2023/03/27 06:54:48;;;;;;;6.63;6.30;;;;;;;;;;5036588;28;20537;-90
2023/03/27 06:57:15;;;;;;;9.40;9.00;;;;;;;;;;5038733;28;20493;-94
2023/03/27 06:59:42;;;;;;;5.18;4.88;;;;;;;;;;5043321;28;20053;-94
2023/03/27 07:02:09;;;;;;;6.93;6.53;;;;;;;;;;5039369;28;20489;-93
2023/03/27 07:04:37;;;;;;;7.85;7.50;;;;;;;;;;5038370;28;20422;-95
2023/03/27 07:07:03;;;;;;;9.60;9.10;;;;;;;;;;5039056;28;20127;-94
2023/03/27 07:09:30;;;;;;;8.07;7.68;;;;;;;;;;5038198;28;20103;-94
2023/03/27 07:11:57;;;;;;;8.80;8.32;;;;;;;;;;5039452;28;20049;-94
2023/03/27 07:14:24;;;;;;;6.07;5.78;;;;;;;;;;5038555;28;20053;-94
2023/03/27 07:16:50;;;;;;;7.80;7.50;;;;;;;;;;5040351;28;20092;-93
2023/03/27 07:19:17;;;;;;;6.53;6.22;;;;;;;;;;5039075;28;20053;-92
2023/03/27 07:21:45;;;;;;;6.00;5.70;;;;;;;;;;5041019;28;20053;-93
2023/03/27 07:24:12;;;;;;;6.45;6.15;;;;;;;;;;5042717;28;20049;-93
2023/03/27 07:26:47;;;;;;;7.05;6.75;;;;;;;;;;5043740;28;20083;-93
2023/03/27 07:29:14;;;;;;;6.78;6.47;;;;;;;;;;5040907;28;20053;-93
2023/03/27 07:31:41;;;;;;;5.97;5.47;;;;;;;;;;5040124;28;20054;-94
2023/03/27 07:34:09;;;;;;;6.97;6.35;;;;;;;;;;5039373;28;20037;-96
2023/03/27 07:36:35;;;;;;;8.98;8.57;;;;;;;;;;5037273;28;20157;-91
2023/03/27 07:39:04;;;;;;;7.57;7.18;;;;;;;;;;5037541;28;20053;-93
2023/03/27 07:41:31;;;;;;;7.35;6.93;;;;;;;;;;5038775;28;20056;-94
2023/03/27 07:43:57;;;;;;;8.93;8.43;;;;;;;;;;5039069;28;20053;-94
2023/03/27 07:46:25;;;;;;;7.65;7.25;;;;;;;;;;5038185;28;20050;-94
2023/03/27 07:48:51;;;;;;;7.75;7.35;;;;;;;;;;5038179;28;20049;-93
2023/03/27 07:51:18;;;;;;;9.13;8.73;;;;;;;;;;5038497;28;20046;-93
2023/03/27 07:53:45;;;;;;;5.95;5.65;;;;;;;;;;5038184;28;20053;-92
2023/03/27 07:56:13;;;;;;;6.30;6.00;;;;;;;;;;5037548;28;20145;-92
2023/03/27 07:58:40;;;;;;;6.43;6.13;;;;;;;;;;5038223;28;20132;-93
2023/03/27 08:01:07;;;;;;;8.57;8.18;;;;;;;;;;5038202;28;20049;-94
2023/03/27 08:03:33;;;;;;;5.78;5.45;;;;;;;;;;5037523;28;20053;-94
2023/03/27 08:06:00;;;;;;;7.13;6.82;;;;;;;;;;5038375;28;20053;-93
2023/03/27 08:08:27;;;;;;;8.50;8.00;;;;;;;;;;5036423;28;20052;-94
2023/03/27 08:10:54;;;;;;;7.13;6.78;;;;;;;;;;5036921;28;20052;-94
2023/03/27 08:13:22;;;;;;;7.25;6.85;;;;;;;;;;5037746;28;20103;-94
2023/03/27 08:15:48;;;;;;;6.50;6.20;;;;;;;;;;5037950;28;20490;-93
2023/03/27 08:18:15;;;;;;;6.22;5.93;;;;;;;;;;5036768;28;20053;-95
2023/03/27 08:20:42;;;;;;;18.30;17.60;;;;;;;;;;5038026;28;20473;-94
2023/03/27 08:23:11;;;;;;;6.53;6.18;;;;;;;;;;5037823;28;20477;-95
2023/03/27 08:25:38;;;;;;;6.60;6.22;;;;;;;;;;5038016;28;20048;-95
2023/03/27 08:28:06;;;;;;;7.53;7.15;;;;;;;;;;5039237;28;20056;-95
2023/03/27 08:30:34;;;;;;;7.13;6.80;;;;;;;;;;5037001;28;20060;-95
2023/03/27 08:33:01;;;;;;;7.07;6.78;;;;;;;;;;5038524;28;20453;-95
2023/03/27 08:35:28;;;;;;;8.23;7.82;;;;;;;;;;5037896;28;20045;-96
2023/03/27 08:37:55;;;;;;;9.40;9.00;;;;;;;;;;5040106;28;20053;-96
2023/03/27 08:40:24;;;;;;;5.97;5.68;;;;;;;;;;5039486;28;20045;-96
2023/03/27 08:42:53;;;;;;;8.80;8.45;;;;;;;;;;5039814;28;20121;-95
2023/03/27 08:45:22;;;;;;;8.68;8.27;;;;;;;;;;5051171;28;20037;-95
2023/03/27 08:47:53;;;;;;;10.05;9.55;;;;;;;;;;5049225;28;20049;-95
2023/03/27 08:50:25;;;;;;;7.18;6.88;;;;;;;;;;5039422;28;20053;-95
2023/03/27 08:52:51;;;;;;;8.80;8.40;;;;;;;;;;5040299;28;20509;-96
2023/03/27 08:55:19;;;;;;;7.72;7.32;;;;;;;;;;5041742;28;20049;-96
2023/03/27 08:57:49;;;;;;;7.95;7.45;;;;;;;;;;5040482;28;20052;-95
2023/03/27 09:00:20;;;;;;;7.18;6.75;;;;;;;;;;5041222;28;20057;-96
2023/03/27 09:02:48;;;;;;;6.22;5.93;;;;;;;;;;5045379;28;20088;-96
2023/03/27 09:05:18;;;;;;;8.82;8.32;;;;;;;;;;5040211;28;20068;-96
2023/03/27 09:07:49;;;;;;;7.13;6.72;;;;;;;;;;5037572;28;20056;-96
2023/03/27 09:10:19;;;;;;;8.00;7.50;;;;;;;;;;5039296;28;20052;-96
2023/03/27 09:12:51;;;;;;;7.35;7.05;;;;;;;;;;5043965;28;20049;-96
2023/03/27 09:15:21;;;;;;;6.40;6.03;;;;;;;;;;5043177;28;20137;-96
2023/03/27 09:17:51;;;;;;;11.15;10.60;;;;;;;;;;5041293;28;20515;-94
2023/03/27 09:20:21;;;;;;;6.63;6.32;;;;;;;;;;5037952;28;20091;-95
2023/03/27 09:22:51;;;;;;;8.20;7.80;;;;;;;;;;5040534;28;20049;-94
2023/03/27 09:25:22;;;;;;;7.50;7.10;;;;;;;;;;5037025;28;20045;-96
2023/03/27 09:27:48;;;;;;;6.05;5.78;;;;;;;;;;5025747;28;20050;-93
2023/03/27 09:30:18;;;;;;;6.57;6.28;;;;;;;;;;5036295;28;20060;-95
2023/03/27 09:32:46;;;;;;;7.63;7.22;;;;;;;;;;5038245;28;20113;-95
2023/03/27 09:35:13;;;;;;;7.38;6.90;;;;;;;;;;5039499;28;20053;-95
2023/03/27 09:37:41;;;;;;;5.65;5.38;;;;;;;;;;5037926;28;20465;-96
2023/03/27 09:40:13;;;;;;;7.80;7.38;;;;;;;;;;5038052;28;20072;-94
2023/03/27 09:42:41;;;;;;;6.85;6.55;;;;;;;;;;5040815;28;20482;-95
2023/03/27 09:45:09;;;;;;;6.90;6.55;;;;;;;;;;5040033;28;20049;-96
2023/03/27 09:47:37;;;;;;;8.75;8.35;;;;;;;;;;5039920;28;20140;-95
2023/03/27 09:50:18;;;;;;;8.02;7.63;;;;;;;;;;5039581;28;20049;-94
2023/03/27 09:52:46;;;;;;;7.35;6.93;;;;;;;;;;5039205;28;20049;-96
2023/03/27 09:55:23;;;;;;;6.90;6.60;;;;;;;;;;5040999;28;20053;-94
2023/03/27 09:57:57;;;;;;;8.13;7.60;;;;;;;;;;5038968;28;20080;-96
2023/03/27 10:00:29;;;;;;;6.32;5.97;;;;;;;;;;5041298;28;20079;-95
2023/03/27 10:03:00;;;;;;;8.35;7.93;;;;;;;;;;5040687;28;20132;-96
2023/03/27 10:05:26;;;;;;;8.82;8.43;;;;;;;;;;5042985;28;20050;-96
2023/03/27 10:07:55;;;;;;;6.43;6.03;;;;;;;;;;5044247;28;20109;-96
2023/03/27 10:10:23;;;;;;;8.00;7.43;;;;;;;;;;5043866;28;20042;-95
2023/03/27 10:12:54;;;;;;;7.80;7.50;;;;;;;;;;5039753;28;20084;-92
2023/03/27 10:15:28;;;;;;;17.85;17.15;;;;;;;;;;5040665;28;20409;-92
2023/03/27 10:17:56;;;;;;;9.68;9.10;;;;;;;;;;5039775;28;20054;-91
2023/03/27 10:20:23;;;;;;;9.95;9.48;;;;;;;;;;5040929;28;20083;-93
2023/03/27 10:22:51;;;;;;;16.27;15.57;;;;;;;;;;5040889;28;20432;-93
2023/03/27 10:25:20;;;;;;;7.47;7.05;;;;;;;;;;5038823;28;20041;-94
2023/03/27 10:27:46;;;;;;;7.05;6.75;;;;;;;;;;5040037;28;20478;-94
2023/03/27 10:30:27;;;;;;;10.10;9.65;;;;;;;;;;5039010;28;20038;-92
2023/03/27 10:32:53;;;;;;;16.88;15.93;;;;;;;;;;5039001;28;20465;-91
2023/03/27 10:35:25;;;;;;;7.88;7.47;;;;;;;;;;5038140;28;20049;-91
2023/03/27 10:37:52;;;;;;;15.40;14.70;;;;;;;;;;5038419;28;20460;-91
2023/03/27 10:40:21;;;;;;;7.85;7.45;;;;;;;;;;5038759;28;20049;-92
2023/03/27 10:42:48;;;;;;;8.68;8.27;;;;;;;;;;5037661;28;20097;-91
2023/03/27 10:45:16;;;;;;;8.13;7.57;;;;;;;;;;5037372;28;20045;-91
2023/03/27 10:47:46;;;;;;;9.82;9.23;;;;;;;;;;5037381;28;20124;-93
2023/03/27 10:50:16;;;;;;;9.32;8.65;;;;;;;;;;5036647;28;20061;-93
2023/03/27 10:52:48;;;;;;;8.43;8.02;;;;;;;;;;5036063;28;20081;-93
2023/03/27 10:55:20;;;;;;;10.13;9.63;;;;;;;;;;5037278;28;20119;-92
2023/03/27 10:57:51;;;;;;;8.95;8.50;;;;;;;;;;5037810;28;20119;-93
2023/03/27 11:00:21;;;;;;;8.10;7.70;;;;;;;;;;5037364;28;20056;-94
2023/03/27 11:02:49;;;;;;;6.57;6.07;;;;;;;;;;5037332;28;20083;-95
2023/03/27 11:05:16;;;;;;;7.45;6.95;;;;;;;;;;5037612;28;20053;-93
2023/03/27 11:07:46;;;;;;;7.00;6.70;;;;;;;;;;5036895;28;20055;-92
2023/03/27 11:10:14;;;;;;;5.57;5.28;;;;;;;;;;5037103;28;20053;-93
2023/03/27 11:12:43;;;;;;;6.93;6.43;;;;;;;;;;5036953;28;20053;-93
2023/03/27 11:15:15;;;;;;;9.13;8.68;;;;;;;;;;5040171;28;20041;-92
2023/03/27 11:17:44;;;;;;;7.28;6.88;;;;;;;;;;5036794;28;20132;-93
2023/03/27 11:20:15;;;;;;;8.85;8.40;;;;;;;;;;5037196;28;20069;-93
2023/03/27 11:22:42;;;;;;;7.78;7.30;;;;;;;;;;5036680;28;20107;-93
2023/03/27 11:25:18;;;;;;;9.95;9.52;;;;;;;;;;5038311;28;20551;-93
2023/03/27 11:27:48;;;;;;;9.75;9.27;;;;;;;;;;5037079;28;20053;-95
2023/03/27 11:30:27;;;;;;;9.13;8.73;;;;;;;;;;5038555;28;20103;-94
2023/03/27 11:32:58;;;;;;;7.65;7.25;;;;;;;;;;5037300;28;20049;-94
2023/03/27 11:35:28;;;;;;;8.73;8.35;;;;;;;;;;5037118;28;20072;-93
2023/03/27 11:37:59;;;;;;;11.30;10.80;;;;;;;;;;5036891;28;20041;-94
2023/03/27 11:40:28;;;;;;;6.82;6.53;;;;;;;;;;5036739;28;20064;-93
2023/03/27 11:42:56;;;;;;;7.25;6.88;;;;;;;;;;5036602;28;20068;-93
2023/03/27 11:45:23;;;;;;;7.25;6.85;;;;;;;;;;5036215;28;20486;-92
2023/03/27 11:48:05;;;;;;;8.95;8.57;;;;;;;;;;5037335;28;20050;-92
2023/03/27 11:50:37;;;;;;;8.20;7.80;;;;;;;;;;5039091;28;20046;-92
2023/03/27 11:53:10;;;;;;;7.53;7.22;;;;;;;;;;5035536;28;20398;-89
2023/03/27 11:55:39;;;;;;;5.75;5.45;;;;;;;;;;5035950;28;20057;-89
2023/03/27 11:58:14;;;;;;;7.70;7.20;;;;;;;;;;5035634;28;20107;-90
2023/03/27 12:00:47;;;;;;;5.32;5.13;;;;;;;;;;5036920;28;20136;-92
2023/03/27 12:03:26;;;;;;;7.95;7.63;;;;;;;;;;5036895;28;20060;-93
2023/03/27 12:06:04;;;;;;;4.93;4.72;;;;;;;;;;5036970;28;20041;-91
2023/03/27 12:08:34;;;;;;;4.15;3.95;;;;;;;;;;5038195;28;20132;-91
2023/03/27 12:11:03;;;;;;;7.75;7.43;;;;;;;;;;5038929;28;20045;-93
2023/03/27 12:13:50;;;;;;;5.22;4.85;;;;;;;;;;5038860;28;20064;-92
2023/03/27 12:16:28;;;;;;;7.25;6.78;;;;;;;;;;5033316;28;20049;-91
2023/03/27 12:19:02;;;;;;;5.28;5.07;;;;;;;;;;5036768;28;20062;-91
2023/03/27 12:21:33;;;;;;;6.75;6.43;;;;;;;;;;5037159;28;20053;-92
2023/03/27 12:24:10;;;;;;;5.88;5.65;;;;;;;;;;5036857;28;20049;-93
2023/03/27 12:26:50;;;;;;;6.13;5.93;;;;;;;;;;5036959;28;20060;-91
2023/03/27 12:29:23;;;;;;;6.57;6.28;;;;;;;;;;5035606;28;20052;-91
2023/03/27 12:31:55;;;;;;;6.95;6.65;;;;;;;;;;5035112;28;20233;-91
2023/03/27 12:34:31;;;;;;;14.82;14.30;;;;;;;;;;5035387;28;20442;-91
2023/03/27 12:36:59;;;;;;;7.53;7.22;;;;;;;;;;5034969;28;20056;-89
2023/03/27 12:39:27;;;;;;;6.78;6.47;;;;;;;;;;5035326;28;20045;-92
2023/03/27 12:41:54;;;;;;;5.00;4.80;;;;;;;;;;5034959;28;20060;-92
2023/03/27 12:44:28;;;;;;;4.60;4.40;;;;;;;;;;5034753;28;20111;-90
2023/03/27 12:47:16;;;;;;;4.38;4.18;;;;;;;;;;5034622;28;20049;-91
2023/03/27 12:49:45;;;;;;;4.68;4.47;;;;;;;;;;5032598;28;20132;-91
2023/03/27 12:52:11;;;;;;;11.63;11.20;;;;;;;;;;5034032;28;20895;-89
2023/03/27 12:54:38;;;;;;;4.80;4.60;;;;;;;;;;5034562;28;20095;-89
2023/03/27 12:57:07;;;;;;;5.72;5.43;;;;;;;;;;5033862;28;20072;-89
2023/03/27 12:59:36;;;;;;;5.47;5.22;;;;;;;;;;5033982;28;20497;-89
2023/03/27 13:02:22;;;;;;;11.40;10.98;;;;;;;;;;5035252;28;20386;-89
2023/03/27 13:05:03;;;;;;;3.83;3.65;;;;;;;;;;5033912;28;20111;-90
2023/03/27 13:07:31;;;;;;;5.45;5.15;;;;;;;;;;5034428;28;20129;-90
2023/03/27 13:10:03;;;;;;;3.17;3.08;;;;;;;;;;5034882;28;20462;-90
2023/03/27 13:12:38;;;;;;;4.15;3.95;;;;;;;;;;5035620;28;20071;-91
2023/03/27 13:15:16;;;;;;;4.30;4.00;;;;;;;;;;5034657;28;20064;-91
2023/03/27 13:17:58;;;;;;;3.42;3.30;;;;;;;;;;5037000;28;20045;-90
2023/03/27 13:20:30;;;;;;;3.80;3.65;;;;;;;;;;5042374;28;20061;-91
2023/03/27 13:23:07;;;;;;;3.55;3.45;;;;;;;;;;5043640;28;20045;-91
2023/03/27 13:25:48;;;;;;;3.33;3.20;;;;;;;;;;5044326;28;20053;-91
2023/03/27 13:28:27;;;;;;;2.90;2.80;;;;;;;;;;5038074;28;20049;-92
2023/03/27 13:30:54;;;;;;;4.82;4.63;;;;;;;;;;5031948;28;20088;-91
2023/03/27 13:33:24;;;;;;;5.13;4.93;;;;;;;;;;5035126;28;20133;-92
2023/03/27 13:36:01;;;;;;;5.35;5.15;;;;;;;;;;5034955;28;20555;-93
2023/03/27 13:38:44;;;;;;;4.68;4.47;;;;;;;;;;5037413;28;20103;-92
2023/03/27 13:41:11;;;;;;;;;;;;;;;;;;5036237;28;20045;-93
2023/03/27 13:43:37;;;;;;;3.25;3.15;;;;;;;;;;5036109;28;20344;-92
2023/03/27 13:46:05;;;;;;;4.45;4.25;;;;;;;;;;5035029;28;20056;-93
2023/03/27 13:48:52;;;;;;;4.38;4.18;;;;;;;;;;5035191;28;20099;-92
2023/03/27 13:51:33;;;;;;;3.80;3.67;;;;;;;;;;5035682;28;20046;-92
2023/03/27 13:54:08;;;;;;;3.28;3.17;;;;;;;;;;5034279;28;20045;-92
2023/03/27 13:56:46;;;;;;;2.67;2.58;;;;;;;;;;5034448;28;20701;-92
2023/03/27 13:59:24;;;;;;;3.80;3.65;;;;;;;;;;5034457;28;20045;-92
2023/03/27 14:01:54;;;;;;;5.28;5.07;;;;;;;;;;5035090;28;20099;-90
2023/03/27 14:04:51;;;;;;;4.32;4.13;;;;;;;;;;5034321;28;20062;-92
2023/03/27 14:07:47;;;;;;;3.75;3.55;;;;;;;;;;5034779;28;20049;-92
2023/03/27 14:10:23;;;;;;;3.40;3.30;;;;;;;;;;5034249;28;20464;-91
2023/03/27 14:12:57;;;;;;;4.80;4.60;;;;;;;;;;5033701;28;20053;-92
2023/03/27 14:15:38;;;;;;;5.57;5.38;;;;;;;;;;5034112;28;20050;-92
2023/03/27 14:18:16;;;;;;;3.95;3.83;;;;;;;;;;5034501;28;20049;-93
2023/03/27 14:20:44;;;;;;;4.70;4.50;;;;;;;;;;5034377;28;20045;-91
2023/03/27 14:23:13;;;;;;;12.02;11.60;;;;;;;;;;5033579;28;20407;-91
2023/03/27 14:25:44;;;;;;;4.90;4.70;;;;;;;;;;5034068;28;20049;-92
2023/03/27 14:28:25;;;;;;;5.40;5.20;;;;;;;;;;5037199;28;20459;-91
2023/03/27 14:30:52;;;;;;;3.88;3.67;;;;;;;;;;5038229;28;20111;-92
2023/03/27 14:33:20;;;;;;;4.60;4.40;;;;;;;;;;5028881;28;20050;-91
2023/03/27 14:35:53;;;;;;;3.53;3.42;;;;;;;;;;5018455;28;20082;-92
2023/03/27 14:38:21;;;;;;;4.18;3.97;;;;;;;;;;5018203;28;20127;-92
2023/03/27 14:40:51;;;;;;;6.53;6.30;;;;;;;;;;5017679;28;20054;-92
2023/03/27 14:43:18;;;;;;;3.17;3.08;;;;;;;;;;5017767;28;20064;-92
2023/03/27 14:45:45;;;;;;;4.05;3.80;;;;;;;;;;5021002;28;20057;-91
2023/03/27 14:48:18;;;;;;;3.25;3.10;;;;;;;;;;5035208;28;20045;-92
2023/03/27 14:50:45;;;;;;;4.57;4.38;;;;;;;;;;5037141;28;20128;-92
2023/03/27 14:53:15;;;;;;;5.90;5.50;;;;;;;;;;5036903;28;20133;-92
2023/03/27 14:55:42;;;;;;;4.13;3.92;;;;;;;;;;5037478;28;20099;-93
2023/03/27 14:58:12;;;;;;;6.20;6.00;;;;;;;;;;5037309;28;20497;-92
2023/03/27 15:00:40;;;;;;;3.97;3.85;;;;;;;;;;5037458;28;20045;-92